Time;durP1;ratioP1;P1;durP2;ratioP2;P2;SDS_P1;SDS_P2;PMS_P1;PMS_P2;Temp;Humidity;BMP_temperature;BMP_pressure;BME280_temperature;BME280_humidity;BME280_pressure;Samples;Min_cycle;Max_cycle;Signal;HPM_P1;HPM_P2
2022/07/08 00:02:17;;;;;;;9.93;2.38;;;;;;;14.88;82.77;102921.06;4912821;29;20071;-71
2022/07/08 00:04:42;;;;;;;10.10;2.50;;;;;;;14.98;82.14;102926.84;4912542;29;20047;-71
2022/07/08 00:07:08;;;;;;;16.38;2.65;;;;;;;14.99;82.68;102926.78;4911717;29;20043;-71
2022/07/08 00:09:33;;;;;;;14.70;2.30;;;;;;;14.93;82.60;102924.38;4911690;29;20035;-71
2022/07/08 00:11:59;;;;;;;6.75;2.13;;;;;;;15.06;82.60;102930.06;4912787;29;20051;-71
2022/07/08 00:14:25;;;;;;;8.02;1.70;;;;;;;14.93;82.32;102934.25;4894331;29;20182;-71
2022/07/08 00:16:51;;;;;;;8.55;2.95;;;;;;;14.94;82.12;102930.63;4912357;29;20119;-71
2022/07/08 00:19:19;;;;;;;10.10;2.15;;;;;;;14.91;82.13;102933.44;4911568;29;20040;-71
2022/07/08 00:21:46;;;;;;;10.38;1.90;;;;;;;14.99;82.34;102926.78;4912363;29;20126;-71
2022/07/08 00:24:13;;;;;;;7.70;1.85;;;;;;;15.05;82.89;102930.97;4910874;29;20035;-72
2022/07/08 00:26:40;;;;;;;17.15;2.75;;;;;;;15.13;82.44;102939.53;4912480;29;20035;-71
2022/07/08 00:29:06;;;;;;;9.65;2.13;;;;;;;15.04;81.99;102937.28;4912175;29;20044;-72
2022/07/08 00:31:32;;;;;;;6.38;1.90;;;;;;;14.96;82.34;102935.00;4912326;29;20042;-72
2022/07/08 00:33:58;;;;;;;12.50;2.00;;;;;;;14.97;81.98;102930.50;4913095;29;20215;-71
2022/07/08 00:36:24;;;;;;;8.77;2.42;;;;;;;14.96;81.82;102929.63;4911262;29;20688;-71
2022/07/08 00:38:50;;;;;;;10.73;2.53;;;;;;;14.94;82.69;102938.69;4912005;29;20046;-71
2022/07/08 00:41:15;;;;;;;7.20;2.00;;;;;;;14.93;82.69;102937.81;4912762;29;20379;-71
2022/07/08 00:43:45;;;;;;;12.63;1.88;;;;;;;14.97;83.38;102942.09;4914260;29;20048;-71
2022/07/08 00:46:13;;;;;;;3.80;1.40;;;;;;;14.96;83.23;102948.44;4913185;29;20051;-71
2022/07/08 00:48:39;;;;;;;13.23;2.20;;;;;;;14.95;82.71;102940.41;4910459;29;20050;-73
2022/07/08 00:51:11;;;;;;;9.98;2.10;;;;;;;14.82;81.82;102947.34;4904260;29;20055;-70
2022/07/08 00:53:41;;;;;;;8.45;2.33;;;;;;;14.83;81.91;102947.25;4893183;29;20052;-72
2022/07/08 00:56:08;;;;;;;11.38;1.80;;;;;;;14.87;82.09;102946.19;4875432;29;20992;-71
2022/07/08 00:58:34;;;;;;;4.32;2.00;;;;;;;14.90;82.24;102945.16;4910739;29;20062;-71
2022/07/08 01:01:00;;;;;;;10.70;2.53;;;;;;;14.86;81.64;102943.53;4911064;29;20050;-71
2022/07/08 01:03:27;;;;;;;4.68;1.75;;;;;;;14.89;81.38;102946.09;4913222;29;20047;-71
2022/07/08 01:05:52;;;;;;;20.63;2.13;;;;;;;14.90;81.59;102954.06;4910495;29;20487;-70
2022/07/08 01:08:18;;;;;;;3.90;1.52;;;;;;;14.83;82.58;102952.63;4913690;29;20775;-71
2022/07/08 01:10:44;;;;;;;8.10;1.63;;;;;;;14.81;82.91;102961.69;4913864;29;20055;-71
2022/07/08 01:13:09;;;;;;;15.02;2.00;;;;;;;14.79;82.66;102958.22;4927483;29;20035;-71
2022/07/08 01:15:35;;;;;;;7.32;1.80;;;;;;;14.77;83.28;102952.94;4914099;29;20093;-71
2022/07/08 01:18:00;;;;;;;9.52;1.80;;;;;;;14.84;82.91;102953.50;4913762;29;20071;-70
2022/07/08 01:20:26;;;;;;;9.88;1.90;;;;;;;14.80;83.18;102954.59;4911760;29;20072;-71
2022/07/08 01:22:52;;;;;;;12.38;4.43;;;;;;;14.77;83.48;102948.44;4912474;29;21028;-71
2022/07/08 01:25:18;;;;;;;6.20;1.75;;;;;;;14.79;83.59;102953.72;4912902;29;20043;-71
2022/07/08 01:27:43;;;;;;;7.15;1.90;;;;;;;14.77;83.19;102951.13;4895977;29;20815;-70
2022/07/08 01:30:09;;;;;;;10.60;2.40;;;;;;;14.67;84.11;102951.63;4912434;29;20047;-70
2022/07/08 01:32:37;;;;;;;9.57;2.20;;;;;;;14.71;83.87;102951.41;4912308;29;20335;-71
2022/07/08 01:35:04;;;;;;;8.50;2.25;;;;;;;14.67;83.42;102948.94;4911528;29;20050;-71
2022/07/08 01:37:30;;;;;;;7.10;1.90;;;;;;;14.63;83.59;102955.38;4912067;29;20320;-71
2022/07/08 01:39:56;;;;;;;5.88;1.83;;;;;;;14.55;83.60;102942.31;4912230;29;20040;-71
2022/07/08 01:42:21;;;;;;;10.23;2.20;;;;;;;14.50;84.23;102950.56;4916287;29;20610;-72
2022/07/08 01:44:47;;;;;;;7.55;1.95;;;;;;;14.49;84.02;102950.66;4916040;29;20040;-71
2022/07/08 01:47:13;;;;;;;7.60;1.98;;;;;;;14.52;84.67;102941.59;4915989;29;20051;-71
2022/07/08 01:49:38;;;;;;;3.80;1.90;;;;;;;14.35;85.29;102950.38;4915342;29;20043;-71
2022/07/08 01:52:29;;;;;;;10.18;2.60;;;;;;;14.35;84.39;102951.25;4974087;23;20049;-73
2022/07/08 01:54:54;;;;;;;9.65;1.90;;;;;;;14.31;84.68;102948.75;4934510;29;20053;-66
2022/07/08 01:57:21;;;;;;;8.70;2.00;;;;;;;14.26;84.75;102949.00;4933852;29;20042;-68
2022/07/08 01:59:48;;;;;;;8.75;2.35;;;;;;;14.14;85.93;102961.13;4934226;29;20451;-70
2022/07/08 02:02:15;;;;;;;4.72;1.90;;;;;;;14.18;85.35;102957.38;4934296;29;20683;-68
2022/07/08 02:04:41;;;;;;;9.60;1.98;;;;;;;14.10;86.27;102956.84;4935036;29;20035;-67
2022/07/08 02:07:07;;;;;;;7.35;2.20;;;;;;;14.03;85.74;102952.69;4934418;29;20071;-68
2022/07/08 02:09:35;;;;;;;9.90;2.17;;;;;;;14.04;86.35;102959.78;4933971;29;20783;-70
2022/07/08 02:12:19;;;;;;;9.10;2.30;;;;;;;14.09;85.30;102955.09;4933472;29;20223;-68
2022/07/08 02:15:02;;;;;;;4.78;1.70;;;;;;;14.11;86.11;102950.56;4934105;29;20054;-67
2022/07/08 02:17:33;;;;;;;20.15;2.83;;;;;;;14.01;86.37;102949.22;4948036;28;20844;-69
2022/07/08 02:19:59;;;;;;;9.18;3.10;;;;;;;14.04;85.90;102951.75;4933329;29;20043;-69
2022/07/08 02:22:25;;;;;;;9.43;1.58;;;;;;;14.05;85.47;102944.56;4933673;29;20396;-67
2022/07/08 02:24:50;;;;;;;6.82;2.10;;;;;;;13.98;86.65;102946.66;4934509;29;20071;-66
2022/07/08 02:27:17;;;;;;;6.38;1.95;;;;;;;13.98;86.56;102949.34;4933398;29;20082;-67
2022/07/08 02:29:42;;;;;;;9.05;1.98;;;;;;;13.98;86.28;102952.88;4934100;29;20042;-68
2022/07/08 02:32:08;;;;;;;10.23;2.30;;;;;;;13.90;86.45;102951.47;4932298;29;20047;-68
2022/07/08 02:34:34;;;;;;;10.68;2.85;;;;;;;13.91;85.84;102950.56;4934669;29;20137;-68
2022/07/08 02:36:59;;;;;;;9.57;2.97;;;;;;;13.93;86.21;102956.72;4933427;29;20514;-66
2022/07/08 02:39:25;;;;;;;9.30;2.25;;;;;;;13.74;86.80;102948.59;4934576;29;20106;-69
2022/07/08 02:41:50;;;;;;;8.43;2.40;;;;;;;13.70;87.38;102936.25;4934557;29;20051;-69
2022/07/08 02:44:17;;;;;;;8.95;2.10;;;;;;;13.73;86.87;102939.69;4933562;29;20071;-68
2022/07/08 02:46:42;;;;;;;7.28;2.15;;;;;;;13.52;87.93;102945.97;4933797;29;20731;-70
2022/07/08 02:49:08;;;;;;;8.82;2.40;;;;;;;13.63;87.52;102948.19;4933712;29;20499;-67
2022/07/08 02:51:35;;;;;;;8.20;2.33;;;;;;;13.74;87.24;102959.31;4933053;28;20042;-68
2022/07/08 02:54:00;;;;;;;6.25;2.40;;;;;;;13.55;87.81;102945.81;4933519;29;20051;-70
2022/07/08 02:56:26;;;;;;;7.47;2.63;;;;;;;13.56;87.48;102944.91;4933761;29;20073;-68
2022/07/08 02:58:51;;;;;;;6.70;2.30;;;;;;;13.50;88.23;102949.63;4933672;29;20039;-66
2022/07/08 03:01:17;;;;;;;8.32;2.35;;;;;;;13.42;88.56;102947.28;4932835;29;20042;-67
2022/07/08 03:03:42;;;;;;;7.18;2.70;;;;;;;13.41;88.27;102938.38;4932896;29;20047;-68
2022/07/08 03:06:08;;;;;;;7.57;3.22;;;;;;;13.32;88.63;102946.78;4932147;29;20805;-69
2022/07/08 03:08:33;;;;;;;11.75;2.72;;;;;;;13.28;88.51;102942.47;4933176;29;20026;-70
2022/07/08 03:10:58;;;;;;;8.93;2.28;;;;;;;13.24;88.88;102946.22;4933236;29;20047;-68
2022/07/08 03:13:24;;;;;;;12.90;3.03;;;;;;;13.25;88.95;102944.41;4932695;29;20047;-69
2022/07/08 03:15:49;;;;;;;10.25;2.30;;;;;;;13.23;88.95;102957.88;4932491;29;20039;-68
2022/07/08 03:18:15;;;;;;;11.13;2.92;;;;;;;13.23;89.13;102954.31;4932845;29;20047;-71
2022/07/08 03:20:40;;;;;;;10.77;2.30;;;;;;;13.24;88.52;102964.97;4933507;29;20043;-69
2022/07/08 03:23:06;;;;;;;7.57;2.72;;;;;;;13.14;89.36;102959.06;4932298;29;20051;-68
2022/07/08 03:25:33;;;;;;;11.65;2.35;;;;;;;13.10;89.66;102964.63;4932808;29;20261;-66
2022/07/08 03:27:59;;;;;;;5.95;2.58;;;;;;;13.21;88.84;102960.63;4932993;29;20043;-67
2022/07/08 03:30:25;;;;;;;9.57;3.08;;;;;;;13.12;89.84;102955.59;4932278;29;20039;-68
2022/07/08 03:32:50;;;;;;;11.40;3.08;;;;;;;13.20;89.22;102961.53;4932218;29;20889;-72
2022/07/08 03:35:16;;;;;;;17.40;3.10;;;;;;;13.13;89.37;102962.69;4932460;29;20476;-68
2022/07/08 03:37:42;;;;;;;12.73;2.85;;;;;;;13.26;88.94;102964.94;4933028;29;20090;-66
2022/07/08 03:42:53;;;;;;;13.13;3.97;;;;;;;13.29;89.39;102964.78;4931898;29;20059;-66
2022/07/08 03:45:19;;;;;;;8.60;3.55;;;;;;;13.24;89.66;102964.97;4931507;29;20243;-69
2022/07/08 03:47:44;;;;;;;14.32;2.72;;;;;;;13.19;89.48;102966.94;4932780;29;20043;-67
2022/07/08 03:50:10;;;;;;;9.00;3.13;;;;;;;13.07;89.88;102968.31;4932449;29;20047;-69
2022/07/08 03:52:35;;;;;;;10.00;2.90;;;;;;;13.09;89.84;102974.47;4914819;29;20055;-67
2022/07/08 03:55:00;;;;;;;13.13;2.78;;;;;;;13.18;89.56;102973.22;4931634;29;20044;-67
2022/07/08 03:57:26;;;;;;;9.65;2.85;;;;;;;13.17;90.05;102982.22;4932323;29;20039;-68
2022/07/08 03:59:51;;;;;;;10.40;2.83;;;;;;;13.23;90.01;102978.44;4930542;29;20039;-67
2022/07/08 04:02:17;;;;;;;7.95;2.38;;;;;;;13.29;89.02;102984.41;4933309;29;20070;-69
2022/07/08 04:04:42;;;;;;;10.38;2.47;;;;;;;13.40;88.89;102984.88;4915002;29;20645;-67
2022/07/08 04:07:08;;;;;;;9.68;2.90;;;;;;;13.44;87.94;102978.44;4931661;29;20043;-69
2022/07/08 04:09:33;;;;;;;14.65;2.83;;;;;;;13.35;88.89;102994.00;4932892;29;20035;-69
2022/07/08 04:11:58;;;;;;;14.18;2.80;;;;;;;13.45;88.40;102998.06;4931387;29;20054;-68
2022/07/08 04:14:24;;;;;;;11.10;2.95;;;;;;;13.46;88.92;103005.19;4931486;29;20042;-68
2022/07/08 04:16:49;;;;;;;6.80;2.92;;;;;;;13.62;88.26;102997.38;4930774;29;20110;-70
2022/07/08 04:19:18;;;;;;;13.77;3.22;;;;;;;13.67;87.36;103003.44;4932366;29;20047;-68
2022/07/08 04:21:43;;;;;;;12.68;3.00;;;;;;;13.66;88.00;103007.06;4932820;29;20051;-68
2022/07/08 04:24:09;;;;;;;10.15;3.85;;;;;;;13.87;87.76;102997.22;4931764;29;20046;-69
2022/07/08 04:26:34;;;;;;;11.35;3.50;;;;;;;14.05;86.90;103009.81;4932272;29;20031;-67
2022/07/08 04:29:00;;;;;;;8.15;3.00;;;;;;;14.00;87.32;103018.06;4931335;29;20039;-67
2022/07/08 04:31:27;;;;;;;14.63;3.35;;;;;;;14.10;87.20;103025.72;4933017;29;20648;-69
2022/07/08 04:33:55;;;;;;;8.75;3.22;;;;;;;14.18;86.67;103016.41;4933140;29;20067;-68
2022/07/08 04:36:21;;;;;;;8.68;2.92;;;;;;;14.44;86.09;103017.94;4931898;29;20039;-68
2022/07/08 04:38:47;;;;;;;8.88;2.85;;;;;;;14.47;86.00;103023.22;4931665;29;20054;-69
2022/07/08 04:41:12;;;;;;;9.82;3.75;;;;;;;14.72;85.36;103016.72;4930936;29;20054;-68
2022/07/08 04:43:38;;;;;;;12.88;3.30;;;;;;;14.76;84.30;103021.03;4931700;29;20118;-68
2022/07/08 04:46:04;;;;;;;10.65;3.28;;;;;;;14.73;83.44;103021.16;4931324;29;20047;-67
2022/07/08 04:48:30;;;;;;;10.85;2.80;;;;;;;14.61;83.88;103019.00;4931999;29;20137;-67
2022/07/08 04:50:55;;;;;;;9.90;2.67;;;;;;;14.85;83.54;103019.72;4930115;29;20415;-68
2022/07/08 04:53:21;;;;;;;14.82;3.60;;;;;;;15.05;82.82;103019.66;4930694;29;20388;-68
2022/07/08 04:55:46;;;;;;;7.03;2.45;;;;;;;15.17;82.84;103023.59;4931092;29;20742;-68
2022/07/08 04:58:12;;;;;;;9.35;1.92;;;;;;;15.67;80.53;103017.59;4929785;29;20035;-69
2022/07/08 05:00:37;;;;;;;7.30;3.08;;;;;;;15.83;79.93;103018.53;4930871;29;20046;-67
2022/07/08 05:03:03;;;;;;;8.77;2.47;;;;;;;16.62;77.20;103018.91;4930527;29;20042;-71
2022/07/08 05:05:30;;;;;;;9.65;2.70;;;;;;;16.17;76.99;103020.38;4932248;29;20790;-70
2022/07/08 05:07:57;;;;;;;5.43;2.28;;;;;;;16.49;76.83;103018.66;4930809;29;20804;-67
2022/07/08 05:10:22;;;;;;;8.38;2.13;;;;;;;16.81;75.81;103027.72;4931450;29;20035;-66
2022/07/08 05:12:49;;;;;;;13.00;3.20;;;;;;;17.84;72.28;103025.50;4932582;29;20086;-70
2022/07/08 05:15:15;;;;;;;10.05;2.50;;;;;;;17.56;73.23;103036.13;4931968;29;20043;-68
2022/07/08 05:17:40;;;;;;;8.77;2.30;;;;;;;17.89;71.44;103035.16;4933895;29;20031;-69
2022/07/08 05:20:08;;;;;;;7.40;2.13;;;;;;;16.66;75.42;103039.31;4932375;29;20043;-70
2022/07/08 05:22:34;;;;;;;10.90;2.60;;;;;;;16.47;77.46;103038.56;4933214;29;20039;-70
2022/07/08 05:24:59;;;;;;;14.07;3.42;;;;;;;16.44;78.03;103049.50;4932371;29;20101;-66
2022/07/08 05:27:25;;;;;;;9.77;2.35;;;;;;;16.59;78.36;103043.28;4931972;29;20027;-69
2022/07/08 05:29:50;;;;;;;10.27;2.20;;;;;;;16.66;78.53;103047.38;4931384;29;20031;-69
2022/07/08 05:32:16;;;;;;;7.10;2.13;;;;;;;17.53;75.27;103044.41;4929282;29;20043;-67
2022/07/08 05:34:44;;;;;;;8.43;2.72;;;;;;;17.17;76.18;103037.44;4929876;29;20090;-66
2022/07/08 05:37:10;;;;;;;5.85;2.08;;;;;;;16.95;76.56;103044.97;4929981;29;20043;-69
2022/07/08 05:39:35;;;;;;;13.63;2.75;;;;;;;17.68;74.25;103045.34;4929786;29;20770;-69
2022/07/08 05:42:01;;;;;;;9.77;2.42;;;;;;;19.19;70.01;103036.06;4928393;29;20035;-69
2022/07/08 05:44:26;;;;;;;8.55;2.20;;;;;;;19.65;68.26;103035.78;4930485;29;20055;-69
2022/07/08 05:46:52;;;;;;;13.60;2.97;;;;;;;18.49;69.36;103035.09;4930513;29;20039;-69
2022/07/08 05:49:17;;;;;;;7.68;2.00;;;;;;;19.07;68.73;103043.13;4929430;29;20859;-67
2022/07/08 05:51:42;;;;;;;12.98;2.47;;;;;;;19.47;68.25;103051.34;4930895;29;20043;-68
2022/07/08 05:54:08;;;;;;;11.05;2.42;;;;;;;20.71;64.17;103034.78;4930090;29;20126;-69
2022/07/08 05:56:33;;;;;;;10.68;2.03;;;;;;;20.09;64.16;103045.44;4930761;29;20042;-70
2022/07/08 05:58:59;;;;;;;9.32;2.75;;;;;;;19.87;64.60;103044.16;4930051;29;20058;-66
2022/07/08 06:01:24;;;;;;;7.65;1.88;;;;;;;20.23;64.72;103045.38;4929349;29;20039;-70
2022/07/08 06:03:50;;;;;;;7.00;1.60;;;;;;;20.16;65.04;103050.31;4912614;29;20093;-70
2022/07/08 06:06:15;;;;;;;7.47;1.75;;;;;;;20.69;63.86;103048.44;4911987;29;20543;-67
2022/07/08 06:08:42;;;;;;;8.10;2.30;;;;;;;21.12;61.16;103053.47;4930088;29;20685;-66
2022/07/08 06:11:07;;;;;;;5.25;1.98;;;;;;;20.15;62.74;103059.41;4928696;29;20035;-67
2022/07/08 06:13:33;;;;;;;12.02;2.85;;;;;;;19.62;64.74;103058.47;4929000;29;20048;-68
2022/07/08 06:15:59;;;;;;;10.30;1.73;;;;;;;19.47;65.31;103061.31;4929029;29;20153;-67
2022/07/08 06:18:24;;;;;;;14.23;2.58;;;;;;;19.27;66.19;103071.59;4911283;29;20043;-69
2022/07/08 06:20:49;;;;;;;6.40;1.52;;;;;;;18.86;67.64;103066.13;4912563;29;20094;-70
2022/07/08 06:23:15;;;;;;;9.68;2.28;;;;;;;20.14;65.46;103054.97;4922118;28;20050;-65
2022/07/08 06:25:40;;;;;;;8.90;2.40;;;;;;;20.42;63.22;103056.63;4936169;28;20035;-72
2022/07/08 06:28:06;;;;;;;12.75;2.17;;;;;;;20.40;64.13;103063.16;4928337;28;20055;-67
2022/07/08 06:30:31;;;;;;;4.47;1.48;;;;;;;20.17;63.11;103053.88;4932164;29;20046;-68
2022/07/08 06:32:59;;;;;;;7.22;1.92;;;;;;;19.96;63.53;103058.06;4930360;29;20031;-68
2022/07/08 06:35:26;;;;;;;8.13;1.92;;;;;;;20.20;63.26;103056.41;4930918;29;20046;-71
2022/07/08 06:37:53;;;;;;;14.95;1.73;;;;;;;19.86;63.76;103065.94;4929867;29;20130;-67
2022/07/08 06:40:21;;;;;;;12.50;2.58;;;;;;;20.17;64.05;103054.75;4927769;29;20782;-71
2022/07/08 06:42:47;;;;;;;5.32;1.70;;;;;;;20.35;61.97;103046.34;4937703;28;20039;-69
2022/07/08 06:45:13;;;;;;;10.60;1.98;;;;;;;20.71;62.39;103052.88;4930772;29;20142;-69
2022/07/08 06:47:39;;;;;;;8.93;2.15;;;;;;;20.56;61.64;103053.00;4929208;29;20117;-70
2022/07/08 06:50:06;;;;;;;7.72;2.20;;;;;;;20.75;62.12;103047.13;4930561;29;20081;-66
2022/07/08 06:52:31;;;;;;;9.40;2.03;;;;;;;20.65;62.00;103051.47;4931887;29;20138;-69
2022/07/08 06:54:57;;;;;;;8.18;1.65;;;;;;;20.19;62.66;103051.97;4932367;29;20047;-70
2022/07/08 06:57:22;;;;;;;12.38;1.65;;;;;;;20.38;62.82;103057.84;4931848;29;20054;-69
2022/07/08 06:59:48;;;;;;;8.55;1.63;;;;;;;20.47;62.35;103050.94;4932883;29;20094;-69
2022/07/08 07:02:13;;;;;;;7.13;2.10;;;;;;;20.40;62.93;103055.88;4933027;29;20051;-70
2022/07/08 07:04:39;;;;;;;7.13;1.90;;;;;;;20.28;62.11;103054.03;4933470;29;20047;-71
2022/07/08 07:07:05;;;;;;;11.52;1.98;;;;;;;20.24;64.02;103041.66;4932101;29;20047;-70
2022/07/08 07:09:30;;;;;;;9.70;2.20;;;;;;;20.15;63.22;103045.00;4933175;29;20043;-71
2022/07/08 07:11:56;;;;;;;6.90;1.85;;;;;;;20.82;63.76;103042.13;4933090;29;20035;-68
2022/07/08 07:14:21;;;;;;;9.02;2.08;;;;;;;20.77;61.79;103047.88;4932255;29;20050;-68
2022/07/08 07:16:47;;;;;;;10.20;1.83;;;;;;;21.28;60.59;103039.63;4932985;29;20073;-70
2022/07/08 07:19:12;;;;;;;4.50;1.50;;;;;;;21.40;60.54;103041.50;4930734;29;20974;-70
2022/07/08 07:21:38;;;;;;;7.00;1.95;;;;;;;20.90;61.58;103053.31;4932364;29;20031;-70
2022/07/08 07:24:03;;;;;;;10.65;1.70;;;;;;;21.40;59.35;103052.34;4931792;29;20065;-67
2022/07/08 07:26:29;;;;;;;11.63;2.05;;;;;;;21.00;61.83;103057.09;4932816;29;20039;-72
2022/07/08 07:28:55;;;;;;;6.28;1.70;;;;;;;21.55;61.43;103049.47;4931378;29;20056;-67
2022/07/08 07:31:21;;;;;;;6.68;2.00;;;;;;;21.36;58.88;103048.13;4931450;29;20038;-70
2022/07/08 07:33:46;;;;;;;6.97;2.13;;;;;;;21.47;62.27;103058.19;4931981;28;20118;-70
2022/07/08 07:36:12;;;;;;;7.47;2.00;;;;;;;22.07;58.77;103053.66;4931490;29;20567;-69
2022/07/08 07:38:37;;;;;;;9.23;2.63;;;;;;;21.99;57.51;103056.97;4946310;28;20035;-67
2022/07/08 07:41:02;;;;;;;10.90;2.28;;;;;;;21.51;60.62;103061.53;4931178;29;20066;-69
2022/07/08 07:43:28;;;;;;;7.25;2.15;;;;;;;21.25;60.79;103069.75;4946404;28;20065;-71
2022/07/08 07:45:53;;;;;;;9.55;1.65;;;;;;;21.12;59.17;103069.75;4932653;29;20102;-69
2022/07/08 07:48:19;;;;;;;9.10;2.05;;;;;;;21.41;62.49;103074.94;4947673;28;20043;-68
2022/07/08 07:50:44;;;;;;;7.20;1.38;;;;;;;21.58;59.86;103070.97;4932017;29;20039;-68
2022/07/08 07:53:10;;;;;;;8.18;1.98;;;;;;;21.33;58.30;103067.34;4930445;28;20083;-70
2022/07/08 07:55:36;;;;;;;10.10;1.80;;;;;;;22.46;56.66;103068.75;4931965;29;20035;-67
2022/07/08 07:58:01;;;;;;;5.95;1.40;;;;;;;22.38;56.92;103066.63;4931350;29;20042;-69
2022/07/08 08:00:26;;;;;;;4.05;1.40;;;;;;;22.35;56.67;103071.47;4931574;29;20086;-71
2022/07/08 08:02:52;;;;;;;18.23;2.10;;;;;;;22.56;58.97;103075.22;4931587;29;20035;-67
2022/07/08 08:05:18;;;;;;;6.97;1.83;;;;;;;21.98;57.17;103082.41;4930241;29;20043;-68
2022/07/08 08:07:43;;;;;;;9.23;1.70;;;;;;;22.64;57.62;103063.69;4931614;29;20196;-66
2022/07/08 08:10:11;;;;;;;7.28;1.75;;;;;;;22.54;57.54;103065.41;4931066;29;20043;-71
2022/07/08 08:12:36;;;;;;;7.05;1.60;;;;;;;22.62;55.90;103072.00;4930920;29;20027;-69
2022/07/08 08:15:02;;;;;;;4.93;1.40;;;;;;;22.71;55.26;103075.84;4930692;29;20111;-69
2022/07/08 08:17:28;;;;;;;9.13;1.70;;;;;;;23.33;55.58;103063.59;4931409;29;20071;-69
2022/07/08 08:19:53;;;;;;;5.80;1.50;;;;;;;22.61;54.24;103066.69;4929649;29;20039;-67
2022/07/08 08:22:19;;;;;;;10.18;1.85;;;;;;;23.09;54.50;103071.91;4929877;29;20074;-70
2022/07/08 08:24:44;;;;;;;7.82;2.25;;;;;;;22.81;54.28;103071.41;4930182;29;20057;-68
2022/07/08 08:27:11;;;;;;;8.13;1.45;;;;;;;22.81;57.35;103068.69;4930460;29;20043;-69
2022/07/08 08:29:36;;;;;;;9.57;2.08;;;;;;;22.94;55.71;103074.91;4930141;29;20756;-69
2022/07/08 08:32:02;;;;;;;4.97;1.58;;;;;;;22.74;55.38;103068.31;4930163;29;20066;-69
2022/07/08 08:34:27;;;;;;;5.75;1.50;;;;;;;22.13;56.60;103073.09;4930859;29;20742;-69
2022/07/08 08:36:53;;;;;;;8.32;1.80;;;;;;;22.51;54.42;103062.97;4928563;28;20055;-69
2022/07/08 08:39:18;;;;;;;6.80;1.60;;;;;;;22.27;56.04;103066.59;4596999;28;10000622;-68
2022/07/08 08:41:44;;;;;;;6.97;1.70;;;;;;;22.20;56.15;103076.22;4927180;28;20034;-67
2022/07/08 08:44:09;;;;;;;9.80;1.48;;;;;;;22.33;55.72;103065.25;4584953;29;10000827;-70
2022/07/08 08:46:36;;;;;;;7.63;1.77;;;;;;;21.97;55.63;103084.25;4929758;29;20035;-67
2022/07/08 08:49:02;;;;;;;9.02;1.73;;;;;;;22.40;56.59;103081.00;4929134;28;20045;-68
2022/07/08 08:51:30;;;;;;;5.50;2.10;;;;;;;22.43;54.69;103085.31;4928119;29;20854;-69
2022/07/08 08:53:58;;;;;;;9.32;1.70;;;;;;;22.71;54.06;103071.28;4911702;29;20094;-70
2022/07/08 08:56:25;;;;;;;11.02;2.13;;;;;;;22.85;54.66;103078.34;4930079;29;20209;-70
2022/07/08 08:58:53;;;;;;;6.05;1.63;;;;;;;23.04;52.66;103075.00;4930912;29;20854;-68
2022/07/08 09:01:19;;;;;;;11.48;1.80;;;;;;;23.41;51.21;103075.59;4930733;29;20121;-70
2022/07/08 09:03:45;;;;;;;7.70;1.88;;;;;;;23.78;52.26;103072.56;4929162;29;20043;-69
2022/07/08 09:06:11;;;;;;;7.88;1.60;;;;;;;23.48;54.71;103079.53;4928962;29;20042;-68
2022/07/08 09:08:38;;;;;;;8.88;1.80;;;;;;;23.53;51.48;103079.16;4930806;29;20035;-68
2022/07/08 09:11:04;;;;;;;10.15;1.70;;;;;;;22.70;55.73;103064.09;4912396;29;20082;-70
2022/07/08 09:13:30;;;;;;;6.25;1.73;;;;;;;23.07;53.83;103063.88;4929447;29;20051;-70
2022/07/08 09:15:58;;;;;;;11.50;2.97;;;;;;;23.25;51.43;103059.66;4930151;29;20070;-67
2022/07/08 09:18:32;;;;;;;10.07;2.17;;;;;;;23.22;51.52;103065.34;4929667;29;20047;-71
2022/07/08 09:20:59;;;;;;;14.30;1.63;;;;;;;23.33;50.72;103053.56;4930397;29;20035;-69
2022/07/08 09:23:24;;;;;;;5.70;1.75;;;;;;;24.09;49.85;103057.19;4930842;29;20126;-70
2022/07/08 09:26:05;;;;;;;5.30;1.55;;;;;;;23.13;51.49;103065.25;4929347;29;20043;-70
2022/07/08 09:28:36;;;;;;;46.80;3.30;;;;;;;23.64;53.24;103065.53;4929952;29;20036;-70
2022/07/08 09:31:05;;;;;;;7.40;1.58;;;;;;;23.43;51.45;103061.84;4928354;29;20035;-70
2022/07/08 09:33:31;;;;;;;12.70;2.05;;;;;;;23.99;51.04;103054.38;4927231;29;20723;-70
2022/07/08 09:36:00;;;;;;;29.65;3.38;;;;;;;24.36;49.54;103056.72;4928708;29;20054;-71
2022/07/08 09:38:27;;;;;;;8.95;1.73;;;;;;;24.00;49.21;103052.53;4929371;29;20046;-72
2022/07/08 09:41:02;;;;;;;8.55;1.63;;;;;;;24.37;50.13;103044.78;4945180;28;20078;-70
2022/07/08 09:43:28;;;;;;;14.73;2.15;;;;;;;23.75;50.90;103049.16;4899288;29;20061;-70
2022/07/08 09:45:54;;;;;;;15.57;2.63;;;;;;;24.16;47.95;103050.22;4915340;29;20874;-69
2022/07/08 09:48:19;;;;;;;9.88;1.95;;;;;;;23.97;51.74;103053.66;4945744;28;20119;-71
2022/07/08 09:50:49;;;;;;;10.27;1.88;;;;;;;23.86;51.75;103047.41;4933096;29;20046;-67
2022/07/08 09:53:20;;;;;;;13.20;2.15;;;;;;;24.62;51.80;103053.56;4915694;29;20987;-66
2022/07/08 09:55:51;;;;;;;7.13;1.83;;;;;;;24.61;49.00;103051.81;4934168;29;20102;-68
2022/07/08 09:58:19;;;;;;;10.15;2.15;;;;;;;24.23;50.11;103051.41;4931385;29;20075;-69
2022/07/08 10:03:19;;;;;;;8.68;2.22;;;;;;;24.24;51.40;103049.53;4946121;23;20053;-70
2022/07/08 10:05:45;;;;;;;12.02;2.03;;;;;;;24.43;50.26;103049.69;4964593;28;20878;-71
2022/07/08 10:08:11;;;;;;;17.75;2.92;;;;;;;25.01;51.91;103041.81;4957553;28;20039;-70
2022/07/08 10:10:39;;;;;;;12.50;2.20;;;;;;;24.41;51.55;103050.84;4958216;28;20530;-70
2022/07/08 10:13:05;;;;;;;7.88;2.10;;;;;;;24.51;50.79;103047.19;4957380;28;20050;-70
2022/07/08 10:15:33;;;;;;;8.00;2.58;;;;;;;24.59;51.81;103038.28;4957644;28;20038;-70
2022/07/08 10:18:11;;;;;;;10.35;1.90;;;;;;;25.45;52.13;103038.78;4957928;28;20074;-69
2022/07/08 10:20:39;;;;;;;8.48;1.90;;;;;;;24.28;50.74;103046.41;4957114;28;20109;-70
2022/07/08 10:23:09;;;;;;;7.75;2.03;;;;;;;24.85;50.16;103044.19;4971398;28;20037;-70
2022/07/08 10:25:35;;;;;;;4.75;1.58;;;;;;;25.52;53.28;103043.53;4975931;28;20050;-71
2022/07/08 10:28:08;;;;;;;7.45;1.95;;;;;;;26.13;49.08;103041.56;4975466;28;20092;-69
2022/07/08 10:30:46;;;;;;;11.07;2.00;;;;;;;25.23;48.47;103048.06;4975578;28;20141;-71
2022/07/08 10:33:18;;;;;;;9.48;2.30;;;;;;;25.66;53.38;103049.59;4975180;28;20045;-71
2022/07/08 10:36:04;;;;;;;7.05;2.03;;;;;;;25.65;47.71;103045.97;4974380;28;20038;-71
2022/07/08 10:38:38;;;;;;;7.57;2.05;;;;;;;25.65;47.93;103053.31;4975080;28;20049;-70
2022/07/08 10:41:07;;;;;;;10.00;1.83;;;;;;;25.54;48.79;103046.97;4974203;28;20057;-70
2022/07/08 10:43:32;;;;;;;5.57;2.13;;;;;;;25.76;48.92;103051.38;4973842;28;20455;-70
2022/07/08 10:46:04;;;;;;;8.25;2.03;;;;;;;24.12;52.45;103042.44;4974886;28;20109;-70
2022/07/08 10:48:41;;;;;;;;;;;;;;;24.37;55.50;103042.06;4976375;28;20048;-70
2022/07/08 10:51:25;;;;;;;12.23;2.60;;;;;;;24.79;51.74;103040.13;4969245;28;20006;-69
2022/07/08 10:53:50;;;;;;;6.22;2.75;;;;;;;24.94;54.54;103043.34;4956114;28;20045;-70
2022/07/08 10:56:50;;;;;;;10.90;2.47;;;;;;;25.70;53.52;103045.56;4957144;28;20034;-70
2022/07/08 10:59:33;;;;;;;9.18;2.17;;;;;;;25.58;50.45;103055.78;4975807;28;20042;-70
2022/07/08 11:01:59;;;;;;;6.13;2.05;;;;;;;25.11;49.64;103044.59;4976078;28;20145;-70
2022/07/08 11:04:33;;;;;;;7.32;1.98;;;;;;;25.02;51.79;103046.25;4974341;28;20076;-70
2022/07/08 11:07:17;;;;;;;7.32;1.90;;;;;;;25.41;50.17;103040.94;4972981;28;20042;-71
2022/07/08 11:09:45;;;;;;;5.55;2.15;;;;;;;25.01;51.66;103044.53;4975841;28;20042;-70
2022/07/08 11:12:11;;;;;;;5.30;2.13;;;;;;;24.43;52.56;103044.25;4974693;28;20438;-70
2022/07/08 11:14:42;;;;;;;6.65;1.85;;;;;;;24.42;53.34;103038.94;4973944;28;20073;-70
2022/07/08 11:17:13;;;;;;;8.13;2.15;;;;;;;23.98;55.92;103038.16;4970065;28;20723;-69
2022/07/08 11:19:41;;;;;;;8.00;1.92;;;;;;;24.52;53.13;103029.81;4973240;28;20049;-71
2022/07/08 11:22:08;;;;;;;9.50;2.08;;;;;;;24.74;52.09;103036.94;4968290;28;20453;-71
2022/07/08 11:24:35;;;;;;;7.10;1.80;;;;;;;24.81;50.55;103037.28;4967015;28;20130;-71
2022/07/08 11:27:00;;;;;;;6.30;2.15;;;;;;;25.31;51.74;103034.59;4953709;28;20081;-69